Airfield :
LOGIN :

Register | Disclaimer

   EN    FR    IT 

 










Legend :    VFR   Marginal VFR   IFR   Intensive IFR   Very Intensive IFR
Visi :
Ceiling :
>= 8 km
>= 3000ft
5 to 8 km
1000 to 3000 ft
1500m to 5 km
500 to 1000 ft
800 to 1500m
200 to 500 ft
< 800m
< 200 ft
Symbols :   Thunderstorms  Fog  Heavy snow  Heavy precipitations  Wind > 20 kt
SIGMETs :     Misc.  Thunderstorms  Icing  Turbulence  Mountain Waves  Volcanic Ashes







- Airport Elevation : 55 ft
- IATA code : PYR


LGAD - Andravida

CURRENT METAR :
  • 241650Z 27004KT 9999 FEW018 24/20 Q1014

EXPIRED METARs :
  • 241620Z 28005KT 9999 FEW018 25/20 Q1014
  • 241550Z 28007KT 9999 FEW020 26/20 Q1014
  • 241520Z 28007KT 9999 FEW020 26/20 Q1013
  • 241450Z 29006KT 9999 FEW020 27/19 Q1013
  • 241420Z 29007KT 9999 FEW020 28/18 Q1014

TAF TAF LGAD
Valid from the 24 at 15:00 until the 25 at 00:00 UTC


241400Z 2415/2424 32010KT 9999 FEW020
No reported NOTAMs for that airfield.



MET'MAP, your aeronautical weather chart ! - Copyright ORBIFLY December 2007 - Disclaimer

ORBIFLY MET'MAP TEAM :

Programming & Development : Alexandra Zaïnal
Concept & Development : Baudouin d'Aumeries
Co-Development & Prog : Marc-Olivier Méhu
Technical & hardware support : Manuel Goepfert

Contact : metmap@orbifly.com




SOURCES & CREDITS :

   NOAA